createdAt,value
2022-08-22T00:02:09.013Z,61.86
2022-08-22T00:02:43.111Z,61.79
2022-08-22T00:04:48.978Z,62.35
2022-08-22T00:07:32.514Z,62.98
2022-08-22T00:10:11.516Z,62.80
2022-08-22T00:12:59.787Z,62.70
2022-08-22T00:15:43.134Z,63.04
2022-08-22T00:18:21.649Z,63.43
2022-08-22T00:21:04.427Z,63.56
2022-08-22T00:23:41.535Z,63.98
2022-08-22T00:26:25.359Z,63.80
2022-08-22T00:29:02.276Z,63.63
2022-08-22T00:31:37.852Z,62.97
2022-08-22T00:34:15.368Z,63.23
2022-08-22T00:36:51.889Z,63.45
2022-08-22T00:39:29.972Z,63.56
2022-08-22T00:42:29.572Z,63.85
2022-08-22T00:45:48.898Z,63.75
2022-08-22T00:48:47.571Z,63.24
2022-08-22T00:51:40.855Z,62.80
2022-08-22T00:54:25.608Z,62.88
2022-08-22T00:57:15.047Z,63.41
2022-08-22T01:00:08.752Z,64.22
2022-08-22T01:02:53.191Z,64.23
2022-08-22T01:05:38.762Z,63.76
2022-08-22T01:08:25.495Z,63.73
2022-08-22T01:11:13.183Z,63.92
2022-08-22T01:14:01.509Z,64.30
2022-08-22T01:17:01.814Z,64.43
2022-08-22T01:19:57.741Z,64.51
2022-08-22T01:22:55.384Z,64.79
2022-08-22T01:25:55.707Z,64.44
2022-08-22T01:28:58.833Z,64.41
2022-08-22T01:32:12.517Z,64.82
2022-08-22T01:35:18.440Z,64.99
2022-08-22T01:38:10.093Z,65.42
2022-08-22T01:41:18.050Z,65.82
2022-08-22T01:44:08.881Z,66.29
2022-08-22T01:46:52.603Z,66.88
2022-08-22T01:49:29.311Z,67.02
2022-08-22T01:52:05.664Z,66.68
2022-08-22T01:54:49.097Z,66.28
2022-08-22T01:57:21.139Z,65.61
2022-08-22T01:59:55.438Z,65.05
2022-08-22T02:02:52.647Z,64.50
2022-08-22T02:05:31.754Z,64.29
2022-08-22T02:08:15.385Z,64.47
2022-08-22T02:10:56.216Z,64.95
2022-08-22T02:13:37.748Z,64.98
2022-08-22T02:16:16.872Z,64.78
2022-08-22T02:19:00.713Z,64.54
2022-08-22T02:21:47.281Z,64.42
2022-08-22T02:24:29.787Z,64.20
2022-08-22T02:27:14.288Z,63.95
2022-08-22T02:29:50.836Z,63.88
2022-08-22T02:32:29.024Z,63.74
2022-08-22T02:35:04.655Z,63.69
2022-08-22T02:37:42.037Z,63.72
2022-08-22T02:40:18.872Z,63.83
2022-08-22T02:42:57.163Z,63.79
2022-08-22T02:45:47.563Z,63.94
2022-08-22T02:48:27.999Z,64.15
2022-08-22T02:51:05.324Z,64.20
2022-08-22T02:53:46.214Z,64.68
2022-08-22T02:56:22.772Z,64.88
2022-08-22T02:58:59.949Z,64.93
2022-08-22T03:01:42.748Z,64.77
2022-08-22T03:04:46.726Z,64.67
2022-08-22T03:07:30.707Z,64.93
2022-08-22T03:10:12.061Z,65.05
2022-08-22T03:12:57.395Z,64.98
2022-08-22T03:15:35.472Z,64.75
2022-08-22T03:18:17.770Z,64.31
2022-08-22T03:20:54.022Z,64.19
2022-08-22T03:23:35.333Z,64.39
2022-08-22T03:26:16.696Z,64.91
2022-08-22T03:28:59.721Z,65.44
2022-08-22T03:31:33.420Z,66.01
2022-08-22T03:34:22.585Z,65.95
2022-08-22T03:37:12.233Z,65.62
2022-08-22T03:39:51.221Z,65.25
2022-08-22T03:42:44.980Z,64.92
2022-08-22T03:45:43.086Z,64.64
2022-08-22T03:48:48.501Z,64.64
2022-08-22T03:51:37.232Z,64.37
2022-08-22T03:54:52.371Z,64.12
2022-08-22T03:57:55.478Z,63.92
2022-08-22T04:01:00.202Z,63.65
2022-08-22T04:03:54.834Z,63.52
2022-08-22T04:06:56.874Z,63.14
2022-08-22T04:09:54.480Z,63.36
2022-08-22T04:12:48.508Z,63.54
2022-08-22T04:15:41.000Z,64.29
2022-08-22T04:18:44.668Z,64.46
2022-08-22T04:21:32.042Z,64.24
2022-08-22T04:24:17.020Z,63.87
2022-08-22T04:26:52.867Z,63.55
2022-08-22T04:29:28.853Z,63.30
2022-08-22T04:32:07.202Z,63.07
2022-08-22T04:34:43.714Z,62.96
2022-08-22T04:37:24.941Z,62.83
2022-08-22T04:40:01.806Z,62.73
2022-08-22T04:42:37.219Z,62.74
2022-08-22T04:45:15.415Z,62.80
2022-08-22T04:47:53.905Z,62.81
2022-08-22T04:50:30.500Z,62.90
2022-08-22T04:53:18.017Z,62.88
2022-08-22T04:56:05.378Z,63.00
2022-08-22T04:58:48.798Z,62.95
2022-08-22T05:01:23.298Z,62.86
2022-08-22T05:03:58.424Z,63.08
2022-08-22T05:06:33.685Z,63.46
2022-08-22T05:09:14.212Z,63.74
2022-08-22T05:11:50.320Z,63.93
2022-08-22T05:14:26.732Z,64.30
2022-08-22T05:17:00.908Z,64.16
2022-08-22T05:19:35.492Z,64.21
2022-08-22T05:22:13.305Z,64.21
2022-08-22T05:24:47.781Z,64.27
2022-08-22T05:27:22.188Z,64.38
2022-08-22T05:29:58.771Z,64.38
2022-08-22T05:32:34.400Z,64.43
2022-08-22T05:35:09.686Z,64.66
2022-08-22T05:37:45.093Z,64.62
2022-08-22T05:40:21.607Z,64.76
2022-08-22T05:42:53.647Z,64.70
2022-08-22T05:45:26.396Z,64.63
2022-08-22T05:48:04.302Z,64.54
2022-08-22T05:50:41.048Z,64.40
2022-08-22T05:53:16.666Z,64.26
2022-08-22T05:55:57.955Z,64.35
2022-08-22T05:58:49.257Z,64.40
2022-08-22T06:01:31.365Z,64.44
2022-08-22T06:04:16.525Z,64.36
2022-08-22T06:06:57.566Z,64.37
2022-08-22T06:09:36.013Z,64.52
2022-08-22T06:12:21.940Z,64.55
2022-08-22T06:15:02.576Z,64.87
2022-08-22T06:17:48.082Z,64.82
2022-08-22T06:20:28.660Z,64.82
2022-08-22T06:23:02.601Z,64.85
2022-08-22T06:25:36.094Z,64.83
2022-08-22T06:28:14.880Z,64.78
2022-08-22T06:30:49.496Z,65.04
2022-08-22T06:33:27.531Z,64.88
2022-08-22T06:36:21.231Z,64.92
2022-08-22T06:39:07.648Z,65.36
2022-08-22T06:41:42.388Z,65.10
2022-08-22T06:44:19.209Z,65.11
2022-08-22T06:46:52.129Z,64.98
2022-08-22T06:49:26.201Z,64.78
2022-08-22T06:52:02.999Z,64.79
2022-08-22T06:54:38.045Z,64.50
2022-08-22T06:57:27.161Z,64.25
2022-08-22T06:59:59.989Z,64.29
2022-08-22T07:02:36.809Z,64.25
2022-08-22T07:05:11.094Z,63.98
2022-08-22T07:07:42.050Z,63.78
2022-08-22T07:10:16.010Z,63.94
2022-08-22T07:12:50.888Z,63.76
2022-08-22T07:15:35.422Z,63.59
2022-08-22T07:18:08.928Z,63.64
2022-08-22T07:20:45.321Z,63.47
2022-08-22T07:23:31.679Z,63.48
2022-08-22T07:26:30.054Z,63.10
2022-08-22T07:29:11.271Z,62.90
2022-08-22T07:31:53.371Z,62.59
2022-08-22T07:34:40.707Z,62.79
2022-08-22T07:37:20.549Z,62.99
2022-08-22T07:39:56.229Z,62.78
2022-08-22T07:42:38.514Z,62.92
2022-08-22T07:45:13.553Z,62.59
2022-08-22T07:48:06.886Z,62.70
2022-08-22T07:50:44.058Z,62.73
2022-08-22T07:53:23.412Z,62.64
2022-08-22T07:55:56.196Z,62.17
2022-08-22T07:58:29.725Z,61.63
2022-08-22T08:01:01.297Z,61.77
2022-08-22T08:03:33.087Z,61.60
2022-08-22T08:06:05.501Z,61.38
2022-08-22T08:08:41.804Z,61.44
2022-08-22T08:11:16.080Z,60.94
2022-08-22T08:13:52.777Z,60.95
2022-08-22T08:16:28.008Z,60.44
2022-08-22T08:19:01.821Z,60.05
2022-08-22T08:21:37.431Z,59.81
2022-08-22T08:24:15.105Z,59.84
2022-08-22T08:27:05.155Z,59.40
2022-08-22T08:29:37.413Z,59.28
2022-08-22T08:32:11.770Z,58.95
2022-08-22T08:34:45.700Z,58.98
2022-08-22T08:37:23.108Z,58.84
2022-08-22T08:39:58.114Z,58.08
2022-08-22T08:43:00.276Z,57.65
2022-08-22T08:45:58.291Z,57.25
2022-08-22T08:48:53.372Z,56.37
2022-08-22T08:51:43.176Z,54.60
2022-08-22T08:54:55.538Z,53.79
2022-08-22T08:57:42.168Z,53.82
2022-08-22T09:00:18.983Z,53.58
2022-08-22T09:02:58.891Z,53.26
2022-08-22T09:05:58.785Z,52.97
2022-08-22T09:08:55.516Z,52.47
2022-08-22T09:12:10.863Z,52.12
2022-08-22T09:15:15.065Z,51.89
2022-08-22T09:18:18.386Z,51.85
2022-08-22T09:21:14.154Z,52.25
2022-08-22T09:24:09.742Z,52.73
2022-08-22T09:26:51.433Z,51.55
2022-08-22T09:29:55.229Z,50.46
2022-08-22T09:32:44.113Z,49.35
2022-08-22T09:35:25.225Z,50.42
2022-08-22T09:38:19.590Z,50.62
2022-08-22T09:40:56.195Z,50.33
2022-08-22T09:43:45.734Z,50.48
2022-08-22T09:46:31.388Z,50.44
2022-08-22T09:49:14.139Z,50.47
2022-08-22T09:51:58.643Z,51.05
2022-08-22T09:54:35.921Z,51.09
2022-08-22T09:57:22.442Z,51.50
2022-08-22T10:00:16.157Z,50.72
2022-08-22T10:02:55.204Z,50.16
2022-08-22T10:05:40.514Z,50.45
2022-08-22T10:08:31.452Z,49.67
2022-08-22T10:11:24.594Z,49.96
2022-08-22T10:14:01.896Z,50.44
2022-08-22T10:16:48.735Z,50.26
2022-08-22T10:19:26.288Z,50.48
2022-08-22T10:25:07.592Z,48.93
2022-08-22T10:28:10.627Z,48.01
2022-08-22T10:30:54.803Z,47.80
2022-08-22T10:33:33.423Z,47.74
2022-08-22T10:36:11.741Z,47.50
2022-08-22T10:38:47.221Z,47.38
2022-08-22T10:41:30.535Z,46.92
2022-08-22T10:44:10.945Z,47.13
2022-08-22T10:46:49.891Z,47.03
2022-08-22T10:49:29.270Z,47.06
2022-08-22T10:52:15.853Z,46.58
2022-08-22T10:54:52.619Z,46.77
2022-08-22T10:57:42.720Z,46.95
2022-08-22T11:00:38.559Z,46.44
2022-08-22T11:03:25.008Z,46.81
2022-08-22T11:06:00.058Z,46.65
2022-08-22T11:08:55.084Z,46.85
2022-08-22T11:11:43.453Z,47.10
2022-08-22T11:14:38.817Z,47.38
2022-08-22T11:17:27.557Z,47.14
2022-08-22T11:20:19.481Z,47.49
2022-08-22T11:23:08.143Z,47.10
2022-08-22T11:25:56.662Z,46.70
2022-08-22T11:29:02.839Z,46.69
2022-08-22T11:32:00.390Z,45.93
2022-08-22T11:34:57.100Z,45.39
2022-08-22T11:37:54.918Z,45.42
2022-08-22T11:40:42.529Z,45.68
2022-08-22T11:43:39.318Z,45.92
2022-08-22T11:46:25.824Z,45.24
2022-08-22T11:49:14.437Z,45.66
2022-08-22T11:52:00.845Z,46.15
2022-08-22T11:54:42.997Z,46.31
2022-08-22T11:57:18.229Z,46.49
2022-08-22T12:00:10.737Z,46.72
2022-08-22T12:02:50.421Z,47.19
2022-08-22T12:05:26.190Z,47.40
2022-08-22T12:08:05.226Z,47.49
2022-08-22T12:10:44.320Z,47.33
2022-08-22T12:13:34.142Z,47.15
2022-08-22T12:16:15.832Z,47.22
2022-08-22T12:18:56.171Z,47.98
2022-08-22T12:21:53.971Z,47.94
2022-08-22T12:24:49.397Z,48.06
2022-08-22T12:27:48.093Z,48.16
2022-08-22T12:30:29.885Z,47.98
2022-08-22T12:33:28.245Z,47.46
2022-08-22T12:36:26.338Z,47.56
2022-08-22T12:39:37.461Z,47.83
2022-08-22T12:42:31.668Z,47.55
2022-08-22T12:45:27.095Z,47.83
2022-08-22T12:48:10.542Z,47.65
2022-08-22T12:50:48.480Z,47.11
2022-08-22T12:53:35.800Z,47.02
2022-08-22T12:56:16.620Z,46.71
2022-08-22T12:59:21.155Z,46.95
2022-08-22T13:01:54.110Z,47.09
2022-08-22T13:04:33.361Z,47.27
2022-08-22T13:07:22.625Z,47.21
2022-08-22T13:09:58.813Z,47.18
2022-08-22T13:12:34.244Z,47.24
2022-08-22T13:15:17.794Z,47.03
2022-08-22T13:17:53.126Z,47.13
2022-08-22T13:20:28.457Z,47.31
2022-08-22T13:23:00.918Z,47.17
2022-08-22T13:25:53.180Z,47.23
2022-08-22T13:28:27.344Z,47.30
2022-08-22T13:30:59.871Z,47.03
2022-08-22T13:33:36.708Z,46.88
2022-08-22T13:36:15.532Z,47.20
2022-08-22T13:38:54.291Z,47.45
2022-08-22T13:41:29.688Z,47.56
2022-08-22T13:44:17.786Z,47.49
2022-08-22T13:47:12.835Z,47.73
2022-08-22T13:49:43.669Z,47.91
2022-08-22T13:52:30.395Z,47.83
2022-08-22T13:55:12.614Z,47.48
2022-08-22T13:57:51.911Z,47.36
2022-08-22T14:01:07.475Z,47.62
2022-08-22T14:03:49.236Z,47.54
2022-08-22T14:06:38.282Z,47.69
2022-08-22T14:09:31.577Z,47.38
2022-08-22T14:12:13.665Z,47.86
2022-08-22T14:14:47.262Z,47.90
2022-08-22T14:17:21.943Z,48.29
2022-08-22T14:20:01.724Z,48.10
2022-08-22T14:22:36.359Z,47.94
2022-08-22T14:25:17.935Z,47.88
2022-08-22T14:28:06.468Z,47.84
2022-08-22T14:31:00.536Z,47.84
2022-08-22T14:33:39.898Z,47.54
2022-08-22T14:36:18.493Z,47.59
2022-08-22T14:38:56.234Z,46.95
2022-08-22T14:41:52.306Z,46.95
2022-08-22T14:44:28.012Z,47.48
2022-08-22T14:47:03.786Z,47.47
2022-08-22T14:49:49.670Z,47.50
2022-08-22T14:52:38.696Z,47.38
2022-08-22T14:55:28.355Z,47.29
2022-08-22T14:58:05.834Z,47.57
2022-08-22T15:00:40.893Z,47.58
2022-08-22T15:03:23.221Z,47.80
2022-08-22T15:05:57.460Z,47.82
2022-08-22T15:08:33.936Z,47.88
2022-08-22T15:11:15.334Z,48.20
2022-08-22T15:13:57.832Z,48.67
2022-08-22T15:16:33.818Z,49.30
2022-08-22T15:19:22.182Z,49.54
2022-08-22T15:22:04.889Z,49.46
2022-08-22T15:24:57.507Z,49.78
2022-08-22T15:27:32.809Z,50.13
2022-08-22T15:30:07.511Z,50.14
2022-08-22T15:32:51.597Z,50.49
2022-08-22T15:35:32.192Z,50.46
2022-08-22T15:38:05.866Z,50.16
2022-08-22T15:40:41.651Z,49.94
2022-08-22T15:43:26.767Z,50.26
2022-08-22T15:46:27.388Z,50.12
2022-08-22T15:49:01.755Z,50.22
2022-08-22T15:51:41.986Z,49.86
2022-08-22T15:54:25.363Z,49.81
2022-08-22T15:57:19.519Z,49.41
2022-08-22T16:00:00.322Z,49.42
2022-08-22T16:02:35.340Z,49.46
2022-08-22T16:05:26.415Z,49.32
2022-08-22T16:08:06.475Z,49.99
2022-08-22T16:10:43.120Z,49.95
2022-08-22T16:13:33.656Z,50.45
2022-08-22T16:16:09.133Z,51.13
2022-08-22T16:19:14.596Z,50.99
2022-08-22T16:22:12.971Z,50.64
2022-08-22T16:25:06.200Z,50.17
2022-08-22T16:27:55.514Z,49.99
2022-08-22T16:30:39.079Z,49.85
2022-08-22T16:33:18.324Z,50.22
2022-08-22T16:36:24.557Z,50.18
2022-08-22T16:38:58.367Z,50.10
2022-08-22T16:41:40.249Z,49.85
2022-08-22T16:44:40.011Z,50.33
2022-08-22T16:47:15.057Z,50.53
2022-08-22T16:50:01.781Z,50.56
2022-08-22T16:52:57.942Z,50.84
2022-08-22T16:56:08.975Z,51.35
2022-08-22T16:59:19.700Z,51.07
2022-08-22T17:02:10.830Z,51.36
2022-08-22T17:04:51.922Z,51.61
2022-08-22T17:07:37.124Z,51.75
2022-08-22T17:10:30.973Z,52.09
2022-08-22T17:13:18.356Z,52.07
2022-08-22T17:16:15.550Z,52.03
2022-08-22T17:19:05.129Z,52.22
2022-08-22T17:21:51.787Z,52.15
2022-08-22T17:24:37.223Z,52.10
2022-08-22T17:27:23.409Z,52.53
2022-08-22T17:30:07.016Z,52.25
2022-08-22T17:32:59.727Z,52.78
2022-08-22T17:35:46.998Z,52.71
2022-08-22T17:38:26.335Z,52.94
2022-08-22T17:41:05.412Z,52.83
2022-08-22T17:43:51.529Z,52.89
2022-08-22T17:46:37.659Z,53.06
2022-08-22T17:49:26.944Z,53.26
2022-08-22T17:52:07.687Z,53.45
2022-08-22T17:54:42.317Z,53.70
2022-08-22T17:57:24.090Z,53.74
2022-08-22T17:59:59.520Z,53.77
2022-08-22T18:02:33.798Z,53.90
2022-08-22T18:05:11.635Z,54.35
2022-08-22T18:08:01.757Z,55.06
2022-08-22T18:10:42.854Z,55.69
2022-08-22T18:13:20.319Z,56.15
2022-08-22T18:15:56.666Z,55.76
2022-08-22T18:18:34.544Z,55.33
2022-08-22T18:21:12.071Z,55.38
2022-08-22T18:23:49.823Z,55.61
2022-08-22T18:26:29.721Z,55.93
2022-08-22T18:29:08.600Z,56.13
2022-08-22T18:31:49.322Z,56.31
2022-08-22T18:34:30.127Z,56.50
2022-08-22T18:37:07.274Z,57.16
2022-08-22T18:39:48.466Z,57.29
2022-08-22T18:42:31.385Z,57.64
2022-08-22T18:45:02.180Z,57.35
2022-08-22T18:47:35.827Z,57.14
2022-08-22T18:50:32.530Z,57.24
2022-08-22T18:53:04.223Z,57.78
2022-08-22T18:55:51.476Z,57.98
2022-08-22T18:58:42.671Z,57.71
2022-08-22T19:01:31.172Z,57.81
2022-08-22T19:04:45.756Z,57.94
2022-08-22T19:07:52.137Z,58.23
2022-08-22T19:10:47.342Z,58.10
2022-08-22T19:13:47.551Z,58.57
2022-08-22T19:16:46.530Z,58.77
2022-08-22T19:19:21.545Z,59.07
2022-08-22T19:22:29.159Z,58.82
2022-08-22T19:25:18.662Z,58.35
2022-08-22T19:28:26.775Z,58.23
2022-08-22T19:31:28.646Z,58.21
2022-08-22T19:34:17.985Z,58.12
2022-08-22T19:37:09.393Z,58.75
2022-08-22T19:39:54.681Z,59.33
2022-08-22T19:42:41.404Z,59.02
2022-08-22T19:45:25.691Z,58.88
2022-08-22T19:48:02.098Z,59.12
2022-08-22T19:50:39.232Z,59.52
2022-08-22T19:53:35.474Z,59.15
2022-08-22T19:56:13.515Z,59.34
2022-08-22T19:58:56.338Z,59.08
2022-08-22T20:01:42.552Z,59.05
2022-08-22T20:04:37.256Z,59.05
2022-08-22T20:07:17.172Z,59.20
2022-08-22T20:09:57.311Z,59.27
2022-08-22T20:12:50.140Z,59.35
2022-08-22T20:15:23.160Z,59.57
2022-08-22T20:21:02.915Z,60.68
2022-08-22T20:23:34.548Z,61.28
2022-08-22T20:26:07.418Z,61.22
2022-08-22T20:28:48.899Z,61.48
2022-08-22T20:31:28.191Z,62.23
2022-08-22T20:34:03.252Z,62.59
2022-08-22T20:36:34.568Z,62.73
2022-08-22T20:39:09.482Z,62.94
2022-08-22T20:41:43.731Z,62.98
2022-08-22T20:44:20.794Z,62.64
2022-08-22T20:46:57.574Z,62.82
2022-08-22T20:49:32.562Z,62.94
2022-08-22T20:52:05.938Z,62.84
2022-08-22T20:54:39.993Z,62.71
2022-08-22T20:57:17.162Z,62.68
2022-08-22T20:59:55.008Z,62.84
2022-08-22T21:02:28.643Z,62.81
2022-08-22T21:05:03.757Z,62.74
2022-08-22T21:07:37.573Z,62.96
2022-08-22T21:10:33.981Z,62.74
2022-08-22T21:13:11.553Z,62.83
2022-08-22T21:15:45.597Z,63.02
2022-08-22T21:18:29.919Z,63.21
2022-08-22T21:21:16.922Z,63.52
2022-08-22T21:23:50.306Z,63.50
2022-08-22T21:26:27.459Z,63.56
2022-08-22T21:29:02.091Z,63.85
2022-08-22T21:31:36.086Z,64.01
2022-08-22T21:34:13.114Z,64.48
2022-08-22T21:36:44.310Z,64.81
2022-08-22T21:39:21.026Z,65.65
2022-08-22T21:41:53.952Z,66.01
2022-08-22T21:44:34.516Z,66.43
2022-08-22T21:47:30.191Z,66.33
2022-08-22T21:50:25.897Z,66.33
2022-08-22T21:53:11.305Z,66.51
2022-08-22T21:55:47.039Z,66.46
2022-08-22T21:58:37.185Z,66.44
2022-08-22T22:01:32.097Z,66.17
2022-08-22T22:04:03.043Z,66.00
2022-08-22T22:06:33.766Z,65.85
2022-08-22T22:09:04.475Z,65.71
2022-08-22T22:11:35.301Z,65.64
2022-08-22T22:14:06.488Z,65.71
2022-08-22T22:16:38.392Z,65.92
2022-08-22T22:19:11.167Z,66.01
2022-08-22T22:21:41.826Z,65.88
2022-08-22T22:24:12.596Z,66.00
2022-08-22T22:26:43.323Z,66.34
2022-08-22T22:29:14.008Z,66.36
2022-08-22T22:31:44.860Z,66.52
2022-08-22T22:34:15.941Z,66.88
2022-08-22T22:36:46.886Z,67.11
2022-08-22T22:39:18.276Z,67.32
2022-08-22T22:41:49.003Z,67.28
2022-08-22T22:44:22.236Z,67.35
2022-08-22T22:46:56.794Z,67.39
2022-08-22T22:49:27.451Z,67.66
2022-08-22T22:51:58.150Z,67.65
2022-08-22T22:54:29.645Z,67.54
2022-08-22T22:57:00.664Z,67.91
2022-08-22T22:59:32.598Z,67.99
2022-08-22T23:02:06.211Z,68.15
2022-08-22T23:04:39.930Z,68.30
2022-08-22T23:07:12.119Z,68.09
2022-08-22T23:09:44.689Z,68.23
2022-08-22T23:12:16.333Z,68.11
2022-08-22T23:14:47.086Z,68.33
2022-08-22T23:17:18.021Z,68.27
2022-08-22T23:19:48.895Z,68.50
2022-08-22T23:22:19.747Z,68.41
2022-08-22T23:24:52.078Z,68.71
2022-08-22T23:27:22.915Z,68.85
2022-08-22T23:29:53.697Z,68.88
2022-08-22T23:32:24.377Z,69.19
2022-08-22T23:34:56.285Z,69.48
2022-08-22T23:37:27.264Z,69.76
2022-08-22T23:39:57.994Z,69.93
2022-08-22T23:42:29.789Z,70.20
2022-08-22T23:45:00.634Z,70.18
2022-08-22T23:47:31.356Z,70.07
2022-08-22T23:50:05.984Z,69.99
2022-08-22T23:52:37.301Z,69.98
2022-08-22T23:55:09.663Z,69.96
2022-08-22T23:57:40.469Z,69.92
